createdAt,value
2023-03-06T00:03:47.994Z,91.92
2023-03-06T00:08:50.611Z,91.69
2023-03-06T00:13:54.452Z,91.77
2023-03-06T00:18:56.928Z,91.60
2023-03-06T00:23:59.429Z,91.50
2023-03-06T00:29:03.273Z,91.58
2023-03-06T00:34:06.012Z,91.61
2023-03-06T00:39:08.644Z,91.27
2023-03-06T00:44:12.480Z,91.67
2023-03-06T00:49:14.982Z,91.73
2023-03-06T00:54:17.506Z,92.16
2023-03-06T00:59:21.482Z,92.22
2023-03-06T01:04:24.300Z,92.04
2023-03-06T01:09:26.849Z,92.19
2023-03-06T01:14:31.389Z,92.25
2023-03-06T01:19:33.875Z,92.06
2023-03-06T01:24:36.358Z,92.16
2023-03-06T01:29:40.176Z,92.56
2023-03-06T01:34:42.700Z,92.28
2023-03-06T01:39:45.337Z,92.69
2023-03-06T01:45:02.903Z,92.72
2023-03-06T01:50:09.796Z,92.49
2023-03-06T01:55:17.119Z,92.80
2023-03-06T02:00:24.127Z,92.67
2023-03-06T02:05:26.671Z,93.07
2023-03-06T02:10:29.242Z,93.19
2023-03-06T02:15:33.214Z,93.28
2023-03-06T02:20:44.274Z,93.37
2023-03-06T02:25:50.521Z,93.19
2023-03-06T02:30:55.827Z,93.35
2023-03-06T02:36:00.202Z,93.45
2023-03-06T02:41:08.035Z,93.57
2023-03-06T02:46:10.616Z,93.23
2023-03-06T02:51:13.087Z,93.32
2023-03-06T02:56:17.157Z,93.60
2023-03-06T03:01:19.777Z,93.65
2023-03-06T03:06:22.336Z,93.10
2023-03-06T03:11:26.148Z,93.50
2023-03-06T03:16:28.683Z,93.18
2023-03-06T03:21:31.202Z,92.92
2023-03-06T03:26:35.054Z,92.88
2023-03-06T03:31:37.739Z,93.29
2023-03-06T03:36:40.320Z,92.87
2023-03-06T03:41:44.249Z,92.92
2023-03-06T03:46:46.805Z,92.54
2023-03-06T03:51:49.343Z,92.07
2023-03-06T03:56:53.173Z,91.78
2023-03-06T04:01:56.495Z,91.57
2023-03-06T04:06:59.146Z,91.79
2023-03-06T04:12:02.992Z,91.07
2023-03-06T04:17:05.560Z,91.08
2023-03-06T04:22:08.040Z,90.79
2023-03-06T04:27:12.237Z,90.97
2023-03-06T04:32:14.888Z,90.28
2023-03-06T04:37:21.143Z,90.55
2023-03-06T04:42:25.139Z,90.24
2023-03-06T04:47:27.682Z,89.74
2023-03-06T04:52:30.230Z,90.57
2023-03-06T04:57:34.049Z,90.15
2023-03-06T05:02:37.308Z,90.28
2023-03-06T05:07:40.673Z,89.85
2023-03-06T05:12:45.347Z,89.37
2023-03-06T05:17:48.400Z,89.57
2023-03-06T05:22:50.906Z,89.58
2023-03-06T05:27:54.713Z,90.17
2023-03-06T05:32:57.218Z,89.30
2023-03-06T05:37:59.765Z,89.34
2023-03-06T05:43:03.594Z,90.17
2023-03-06T05:48:07.288Z,90.18
2023-03-06T05:53:09.816Z,90.04
2023-03-06T05:58:13.616Z,89.67
2023-03-06T06:03:16.109Z,89.88
2023-03-06T06:08:19.024Z,90.16
2023-03-06T06:13:22.854Z,89.69
2023-03-06T06:18:25.342Z,90.10
2023-03-06T06:23:27.849Z,90.00
2023-03-06T06:28:32.091Z,90.63
2023-03-06T06:33:35.661Z,91.27
2023-03-06T06:38:38.159Z,90.82
2023-03-06T06:43:42.072Z,91.64
2023-03-06T06:48:44.585Z,92.02
2023-03-06T06:53:47.085Z,91.67
2023-03-06T06:58:52.670Z,92.25
2023-03-06T07:03:55.286Z,92.54
2023-03-06T07:08:57.904Z,92.32
2023-03-06T07:14:01.945Z,93.23
2023-03-06T07:19:04.470Z,93.09
2023-03-06T07:24:07.204Z,92.92
2023-03-06T07:29:11.141Z,94.10
2023-03-06T07:34:15.658Z,94.18
2023-03-06T07:39:18.172Z,94.14
2023-03-06T07:44:22.090Z,93.76
2023-03-06T07:49:24.565Z,93.82
2023-03-06T07:54:27.082Z,94.04
2023-03-06T07:59:30.983Z,94.18
2023-03-06T08:04:34.041Z,94.03
2023-03-06T08:09:37.029Z,94.20
2023-03-06T08:14:40.966Z,94.22
2023-03-06T08:19:43.475Z,94.42
2023-03-06T08:24:45.994Z,94.49
2023-03-06T08:29:49.819Z,94.89
2023-03-06T08:34:52.485Z,94.42
2023-03-06T08:39:54.996Z,94.81
2023-03-06T08:44:58.843Z,94.50
2023-03-06T08:50:01.367Z,94.73
2023-03-06T08:55:04.304Z,94.82
2023-03-06T09:00:10.746Z,94.50
2023-03-06T09:05:13.297Z,94.51
2023-03-06T09:10:17.626Z,94.38
2023-03-06T09:15:22.956Z,94.35
2023-03-06T09:20:25.460Z,94.18
2023-03-06T09:25:28.045Z,94.07
2023-03-06T09:30:31.923Z,94.08
2023-03-06T09:35:34.525Z,93.61
2023-03-06T09:40:50.354Z,93.35
2023-03-06T09:45:55.068Z,93.82
2023-03-06T09:51:03.852Z,92.64
2023-03-06T09:56:14.327Z,91.70
2023-03-06T10:01:22.903Z,91.18
2023-03-06T10:06:30.137Z,90.19
2023-03-06T10:11:39.846Z,90.31
2023-03-06T10:16:43.767Z,88.51
2023-03-06T10:21:58.044Z,87.60
2023-03-06T10:27:10.357Z,87.07
2023-03-06T10:32:32.170Z,86.35
2023-03-06T10:37:39.333Z,84.00
2023-03-06T10:42:41.868Z,84.66
2023-03-06T10:47:46.373Z,83.80
2023-03-06T10:53:00.221Z,82.88
2023-03-06T10:58:19.547Z,80.27
2023-03-06T11:03:25.032Z,79.60
2023-03-06T11:08:27.641Z,77.96
2023-03-06T11:13:32.258Z,77.83
2023-03-06T11:18:41.946Z,77.46
2023-03-06T11:23:47.164Z,74.78
2023-03-06T11:28:56.802Z,74.40
2023-03-06T11:34:06.760Z,73.85
2023-03-06T11:39:23.805Z,72.39
2023-03-06T11:44:37.597Z,72.52
2023-03-06T11:49:45.308Z,69.87
2023-03-06T11:54:54.246Z,69.06
2023-03-06T12:00:22.172Z,68.25
2023-03-06T12:05:37.875Z,68.88
2023-03-06T12:10:51.492Z,69.14
2023-03-06T12:16:18.808Z,68.81
2023-03-06T12:21:32.117Z,66.97
2023-03-06T12:26:49.463Z,66.98
2023-03-06T12:32:02.985Z,64.90
2023-03-06T12:37:17.586Z,64.43
2023-03-06T12:42:34.569Z,63.49
2023-03-06T12:47:42.534Z,64.07
2023-03-06T12:52:47.920Z,63.82
2023-03-06T12:57:50.608Z,64.69
2023-03-06T13:03:07.583Z,65.39
2023-03-06T13:08:34.142Z,65.18
2023-03-06T13:13:44.240Z,65.56
2023-03-06T13:18:54.337Z,64.02
2023-03-06T13:24:05.033Z,64.09
2023-03-06T13:29:48.590Z,64.29
2023-03-06T13:34:51.832Z,65.46
2023-03-06T13:40:26.336Z,65.72
2023-03-06T13:45:35.007Z,66.62
2023-03-06T13:50:41.894Z,65.06
2023-03-06T13:55:59.293Z,64.80
2023-03-06T14:01:23.906Z,65.10
2023-03-06T14:06:50.404Z,64.69
2023-03-06T14:11:58.500Z,65.26
2023-03-06T14:17:04.803Z,65.05
2023-03-06T14:22:14.720Z,65.06
2023-03-06T14:27:20.020Z,64.13
2023-03-06T14:32:23.502Z,62.97
2023-03-06T14:37:26.081Z,63.59
2023-03-06T14:42:30.659Z,64.32
2023-03-06T14:47:34.747Z,63.62
2023-03-06T14:52:37.288Z,64.60
2023-03-06T14:57:41.220Z,65.00
2023-03-06T15:02:45.089Z,65.56
2023-03-06T15:07:47.984Z,65.28
2023-03-06T15:12:51.942Z,65.92
2023-03-06T15:17:54.444Z,66.25
2023-03-06T15:22:56.949Z,66.05
2023-03-06T15:28:02.574Z,65.42
2023-03-06T15:33:23.900Z,66.16
2023-03-06T15:38:34.757Z,65.73
2023-03-06T15:43:40.494Z,66.19
2023-03-06T15:48:52.406Z,66.42
2023-03-06T15:53:59.724Z,66.45
2023-03-06T15:59:17.778Z,67.13
2023-03-06T16:04:20.681Z,67.92
2023-03-06T16:09:23.727Z,68.72
2023-03-06T16:14:27.748Z,69.27
2023-03-06T16:19:30.247Z,69.41
2023-03-06T16:24:32.763Z,69.30
2023-03-06T16:29:36.593Z,69.79
2023-03-06T16:34:39.113Z,70.55
2023-03-06T16:39:41.858Z,70.78
2023-03-06T16:44:45.695Z,71.42
2023-03-06T16:49:48.225Z,71.66
2023-03-06T16:54:50.850Z,71.60
2023-03-06T16:59:54.791Z,72.19
2023-03-06T17:04:57.271Z,72.70
2023-03-06T17:10:00.240Z,73.00
2023-03-06T17:15:05.231Z,72.76
2023-03-06T17:20:09.173Z,72.82
2023-03-06T17:25:12.254Z,73.05
2023-03-06T17:30:16.618Z,73.56
2023-03-06T17:35:19.375Z,73.20
2023-03-06T17:40:21.877Z,73.77
2023-03-06T17:45:25.798Z,74.18
2023-03-06T17:50:28.277Z,74.17
2023-03-06T17:55:30.814Z,74.26
2023-03-06T18:00:34.690Z,74.43
2023-03-06T18:05:37.604Z,75.25
2023-03-06T18:10:40.999Z,75.71
2023-03-06T18:15:44.850Z,76.17
2023-03-06T18:20:47.477Z,76.58
2023-03-06T18:25:50.030Z,76.35
2023-03-06T18:30:53.855Z,77.22
2023-03-06T18:35:56.735Z,76.75
2023-03-06T18:40:59.238Z,77.15
2023-03-06T18:46:03.410Z,78.06
2023-03-06T18:51:06.899Z,78.63
2023-03-06T18:56:10.988Z,78.66
2023-03-06T19:01:15.269Z,78.47
2023-03-06T19:06:18.371Z,78.87
2023-03-06T19:11:20.895Z,79.18
2023-03-06T19:16:26.860Z,79.11
2023-03-06T19:21:29.836Z,79.83
2023-03-06T19:26:32.446Z,79.94
2023-03-06T19:31:36.315Z,80.15
2023-03-06T19:36:40.600Z,80.25
2023-03-06T19:41:43.088Z,80.53
2023-03-06T19:46:46.928Z,81.04
2023-03-06T19:51:49.401Z,81.12
2023-03-06T19:56:51.958Z,81.46
2023-03-06T20:01:55.829Z,82.22
2023-03-06T20:06:59.585Z,82.37
2023-03-06T20:12:02.947Z,82.25
2023-03-06T20:17:07.716Z,82.60
2023-03-06T20:22:10.394Z,82.42
2023-03-06T20:27:13.298Z,83.18
2023-03-06T20:32:17.171Z,83.16
2023-03-06T20:37:19.694Z,83.09
2023-03-06T20:42:22.199Z,82.80
2023-03-06T20:47:26.024Z,83.34
2023-03-06T20:52:28.509Z,83.62
2023-03-06T20:57:31.014Z,83.56
2023-03-06T21:02:34.883Z,83.67
2023-03-06T21:07:37.347Z,83.62
2023-03-06T21:12:39.961Z,83.55
2023-03-06T21:17:43.787Z,83.62
2023-03-06T21:22:46.260Z,83.65
2023-03-06T21:27:48.763Z,83.49
2023-03-06T21:32:54.246Z,83.63
2023-03-06T21:37:57.446Z,83.97
2023-03-06T21:43:00.017Z,83.89
2023-03-06T21:48:04.565Z,84.60
2023-03-06T21:53:07.207Z,84.61
2023-03-06T21:58:09.737Z,84.34
2023-03-06T22:03:13.595Z,84.76
2023-03-06T22:08:16.080Z,84.79
2023-03-06T22:13:19.139Z,84.95
2023-03-06T22:18:23.008Z,84.98
2023-03-06T22:23:25.624Z,85.09
2023-03-06T22:28:28.088Z,85.12
2023-03-06T22:33:31.937Z,85.15
2023-03-06T22:38:34.941Z,85.12
2023-03-06T22:43:37.889Z,85.29
2023-03-06T22:48:42.314Z,85.37
2023-03-06T22:53:45.285Z,85.48
2023-03-06T22:58:48.734Z,85.46
2023-03-06T23:03:54.159Z,85.53
2023-03-06T23:08:58.672Z,85.99
2023-03-06T23:14:01.506Z,86.24
2023-03-06T23:19:06.187Z,85.82
2023-03-06T23:24:08.830Z,86.19
2023-03-06T23:29:11.435Z,86.13
2023-03-06T23:34:15.264Z,86.11
2023-03-06T23:39:17.808Z,86.23
2023-03-06T23:44:20.389Z,86.17
2023-03-06T23:49:24.256Z,86.47
2023-03-06T23:54:26.734Z,86.40
2023-03-06T23:59:29.218Z,86.50
